Eagle Creek, Indiana
Current Conditions -  °F | °C
As of 6:54 AM on Thursday 27 Nov 2014 (Local Time) from KIND Reporting Station
Overcast Overcast  
Wind Chill: 16°   Ceiling: 4400
Heat Index: 25°   Visibility: 7mi
Dew Point: 19°   Wind: 9mph
Humidity: 78%   Direction: 300°WNW
Pressure: 30.23"   Gusts: NA
Location:  39.7691°N, 86.1583°W
Report Text: KIND 271154Z 30008KT 7SM OVC044 M04/M07 A3023 RMK AO2 SLP247 60000 T10391072 11022 21044 53024
Loading
Personal Weather Stations






























Interactive Weather Map New forecast layout! Learn more

10-Day Weather Forecast

Advertisements
Track Severe Weather on mobile